Terminal Aerodrome Forecast
Issued by NWS Lake Charles, LA

Home | Current Version | Previous Version | Text Only | Print | Product List | Glossary On
Versions: 1 2 3 4 5 6 7 8 9 10 11 12 13 14 15 16 17 18 19 20
646
FTUS44 KLCH 231411 AAB
TAFLFT
TAF AMD
KLFT 231411Z 2314/2412 36005KT P6SM SCT015
     FM232100 06008KT P6SM SCT025
     FM240400 15006KT P6SM BKN015=

USA.gov is the U.S. government's official web portal to all federal, state and local government web resources and services.